createdAt,value
2023-03-23T00:01:42.571Z,31.26
2023-03-23T00:05:42.935Z,28.46
2023-03-23T00:09:42.982Z,28.80
2023-03-23T00:13:42.483Z,27.77
2023-03-23T00:17:42.454Z,28.55
2023-03-23T00:21:42.431Z,30.80
2023-03-23T00:25:42.721Z,29.81
2023-03-23T00:29:42.360Z,31.34
2023-03-23T00:33:42.316Z,29.86
2023-03-23T00:37:42.297Z,27.05
2023-03-23T00:41:42.270Z,27.23
2023-03-23T00:45:42.476Z,27.83
2023-03-23T00:49:42.199Z,27.82
2023-03-23T00:53:42.147Z,25.41
2023-03-23T00:57:42.104Z,29.21
2023-03-23T01:01:42.096Z,29.97
2023-03-23T01:05:42.328Z,28.08
2023-03-23T01:09:42.031Z,30.66
2023-03-23T01:13:42.481Z,29.08
2023-03-23T01:17:42.012Z,27.06
2023-03-23T01:21:42.000Z,28.88
2023-03-23T01:25:42.256Z,28.34
2023-03-23T01:29:41.993Z,29.80
2023-03-23T01:33:41.979Z,31.61
2023-03-23T01:37:41.972Z,29.39
2023-03-23T01:41:41.977Z,30.77
2023-03-23T01:45:42.266Z,28.15
2023-03-23T01:49:41.958Z,28.26
2023-03-23T01:53:41.957Z,28.39
2023-03-23T01:57:41.945Z,26.80
2023-03-23T02:01:41.937Z,27.69
2023-03-23T02:05:42.107Z,31.05
2023-03-23T02:09:41.899Z,29.03
2023-03-23T02:13:41.875Z,25.67
2023-03-23T02:17:41.855Z,31.97
2023-03-23T02:21:41.829Z,30.92
2023-03-23T02:25:41.953Z,25.24
2023-03-23T02:29:43.636Z,25.66
2023-03-23T02:33:41.612Z,30.05
2023-03-23T02:37:41.429Z,25.00
2023-03-23T02:41:41.262Z,30.98
2023-03-23T02:45:41.184Z,27.51
2023-03-23T02:49:40.977Z,26.71
2023-03-23T02:53:40.733Z,25.36
2023-03-23T02:57:40.742Z,26.80
2023-03-23T03:01:40.435Z,31.52
2023-03-23T03:05:40.410Z,31.92
2023-03-23T03:09:40.000Z,28.78
2023-03-23T03:13:39.806Z,26.02
2023-03-23T03:17:39.752Z,28.34
2023-03-23T03:21:39.728Z,31.08
2023-03-23T03:25:40.374Z,31.56
2023-03-23T03:29:39.685Z,29.29
2023-03-23T03:33:39.972Z,27.47
2023-03-23T03:37:39.670Z,31.84
2023-03-23T03:41:39.663Z,30.79
2023-03-23T03:45:39.670Z,28.52
2023-03-23T03:49:39.641Z,29.92
2023-03-23T03:53:39.637Z,30.87
2023-03-23T03:57:39.626Z,29.77
2023-03-23T04:01:39.622Z,31.58
2023-03-23T04:05:39.980Z,30.67
2023-03-23T04:09:39.626Z,27.01
2023-03-23T04:13:39.613Z,29.81
2023-03-23T04:17:39.613Z,27.45
2023-03-23T04:21:39.597Z,27.52
2023-03-23T04:25:39.726Z,30.17
2023-03-23T04:29:39.576Z,29.76
2023-03-23T04:33:58.722Z,30.11
2023-03-23T04:37:40.380Z,25.84
2023-03-23T04:41:39.474Z,29.94
2023-03-23T04:45:39.169Z,26.85
2023-03-23T04:49:38.942Z,30.33
2023-03-23T04:53:38.931Z,28.16
2023-03-23T04:57:38.863Z,28.79
2023-03-23T05:01:38.824Z,27.50
2023-03-23T05:05:38.789Z,30.48
2023-03-23T05:09:38.815Z,26.98
2023-03-23T05:13:38.707Z,25.47
2023-03-23T05:17:38.670Z,29.40
2023-03-23T05:21:38.640Z,28.65
2023-03-23T05:25:38.601Z,30.93
2023-03-23T05:29:38.570Z,30.46
2023-03-23T05:33:38.573Z,30.25
2023-03-23T05:37:38.464Z,30.41
2023-03-23T05:41:38.440Z,31.01
2023-03-23T05:45:38.250Z,28.61
2023-03-23T05:49:38.067Z,29.28
2023-03-23T05:53:37.894Z,25.79
2023-03-23T05:57:37.711Z,27.35
2023-03-23T06:01:37.530Z,30.10
2023-03-23T06:05:37.340Z,29.18
2023-03-23T06:09:37.144Z,29.20
2023-03-23T06:13:36.965Z,35.39
2023-03-23T06:17:36.796Z,42.63
2023-03-23T06:21:36.613Z,53.68
2023-03-23T06:25:36.444Z,63.30
2023-03-23T06:29:36.280Z,81.98
2023-03-23T06:33:36.121Z,86.58
2023-03-23T06:37:35.960Z,73.04
2023-03-23T06:41:35.801Z,49.11
2023-03-23T06:45:35.627Z,63.83
2023-03-23T06:49:35.464Z,69.78
2023-03-23T06:53:35.294Z,73.56
2023-03-23T06:57:35.212Z,73.43
2023-03-23T07:01:35.220Z,78.89
2023-03-23T07:05:35.133Z,81.18
2023-03-23T07:09:43.116Z,37.75
2023-03-23T07:13:36.470Z,13.35
2023-03-23T07:17:34.768Z,45.32
2023-03-23T07:21:34.610Z,58.73
2023-03-23T07:25:34.434Z,68.51
2023-03-23T07:29:34.315Z,76.50
2023-03-23T07:33:34.258Z,82.92
2023-03-23T07:37:34.174Z,85.01
2023-03-23T07:41:34.110Z,93.01
2023-03-23T07:45:34.078Z,93.71
2023-03-23T07:49:33.998Z,99.16
2023-03-23T07:53:33.964Z,98.59
2023-03-23T07:57:33.895Z,0.00
2023-03-23T08:01:33.863Z,0.00
2023-03-23T08:05:33.885Z,0.00
2023-03-23T08:09:33.929Z,52.44
2023-03-23T08:13:33.986Z,91.24
2023-03-23T08:17:33.964Z,184.82
2023-03-23T08:21:34.056Z,252.18
2023-03-23T08:25:33.992Z,250.31
2023-03-23T08:29:33.934Z,249.60
2023-03-23T08:33:34.410Z,250.00
2023-03-23T08:37:33.776Z,249.57
2023-03-23T08:41:33.755Z,249.97
2023-03-23T08:45:33.657Z,250.00
2023-03-23T08:49:33.600Z,249.35
2023-03-23T08:53:34.377Z,248.39
2023-03-23T08:57:33.505Z,250.01
2023-03-23T09:01:33.449Z,248.82
2023-03-23T09:05:34.979Z,249.97
2023-03-23T09:09:33.442Z,249.75
2023-03-23T09:13:33.321Z,249.42
2023-03-23T09:17:33.449Z,212.33
2023-03-23T09:21:33.252Z,183.31
2023-03-23T09:25:33.951Z,171.26
2023-03-23T09:29:33.872Z,165.77
2023-03-23T09:33:33.120Z,165.10
2023-03-23T09:37:33.067Z,202.90
2023-03-23T09:41:33.025Z,219.11
2023-03-23T09:45:33.000Z,226.28
2023-03-23T09:49:32.994Z,233.49
2023-03-23T09:53:33.845Z,234.56
2023-03-23T09:57:32.688Z,233.95
2023-03-23T10:01:32.550Z,234.87
2023-03-23T10:05:32.364Z,232.06
2023-03-23T10:09:32.276Z,233.22
2023-03-23T10:13:32.234Z,230.65
2023-03-23T10:17:32.294Z,235.87
2023-03-23T10:21:32.227Z,243.85
2023-03-23T10:25:32.170Z,238.46
2023-03-23T10:29:32.131Z,239.17
2023-03-23T10:33:32.081Z,233.67
2023-03-23T10:37:32.026Z,227.26
2023-03-23T10:41:31.993Z,219.70
2023-03-23T10:45:32.469Z,220.95
2023-03-23T10:49:31.912Z,223.19
2023-03-23T10:53:31.813Z,221.69
2023-03-23T10:57:31.783Z,226.47
2023-03-23T11:01:31.720Z,225.10
2023-03-23T11:05:31.716Z,230.68
2023-03-23T11:09:31.644Z,232.71
2023-03-23T11:13:31.702Z,229.84
2023-03-23T11:17:31.954Z,228.98
2023-03-23T11:21:31.606Z,229.29
2023-03-23T11:25:31.702Z,230.79
2023-03-23T11:29:32.927Z,229.35
2023-03-23T11:33:31.459Z,238.13
2023-03-23T11:37:31.422Z,241.77
2023-03-23T11:41:31.398Z,246.41
2023-03-23T11:45:31.373Z,247.72
2023-03-23T11:49:33.511Z,249.21
2023-03-23T11:53:31.135Z,250.00
2023-03-23T11:57:30.946Z,250.00
2023-03-23T12:01:30.832Z,249.84
2023-03-23T12:05:30.643Z,250.00
2023-03-23T12:09:30.402Z,250.00
2023-03-23T12:13:30.234Z,249.85
2023-03-23T12:17:30.094Z,248.04
2023-03-23T12:21:29.920Z,246.25
2023-03-23T12:25:29.741Z,244.49
2023-03-23T12:29:29.557Z,246.32
2023-03-23T12:33:29.367Z,246.93
2023-03-23T12:37:29.201Z,245.24
2023-03-23T12:41:29.033Z,244.46
2023-03-23T12:45:28.889Z,246.26
2023-03-23T12:49:28.693Z,246.10
2023-03-23T12:53:28.517Z,249.86
2023-03-23T12:57:28.456Z,250.00
2023-03-23T13:01:28.153Z,253.16
2023-03-23T13:05:27.985Z,237.81
2023-03-23T13:09:27.808Z,242.16
2023-03-23T13:13:27.643Z,245.52
2023-03-23T13:17:27.464Z,249.36
2023-03-23T13:21:27.291Z,240.90
2023-03-23T13:25:27.268Z,237.02
2023-03-23T13:29:26.970Z,233.83
2023-03-23T13:33:26.755Z,233.54
2023-03-23T13:37:26.585Z,229.32
2023-03-23T13:41:26.406Z,225.65
2023-03-23T13:45:26.282Z,225.80
2023-03-23T13:49:26.180Z,226.90
2023-03-23T13:53:26.229Z,229.57
2023-03-23T13:57:25.920Z,229.73
2023-03-23T14:01:26.442Z,229.53
2023-03-23T14:05:25.591Z,230.78
2023-03-23T14:09:25.406Z,230.56
2023-03-23T14:13:25.228Z,231.79
2023-03-23T14:17:25.050Z,233.73
2023-03-23T14:21:25.445Z,234.63
2023-03-23T14:25:24.690Z,235.14
2023-03-23T14:29:24.499Z,236.19
2023-03-23T14:33:24.326Z,234.93
2023-03-23T14:37:24.106Z,236.35
2023-03-23T14:41:24.005Z,237.41
2023-03-23T14:45:23.899Z,239.66
2023-03-23T14:49:23.780Z,240.32
2023-03-23T14:53:23.685Z,242.79
2023-03-23T14:57:23.579Z,237.67
2023-03-23T15:01:23.460Z,240.10
2023-03-23T15:05:23.353Z,243.80
2023-03-23T15:09:23.234Z,243.06
2023-03-23T15:13:23.138Z,244.44
2023-03-23T15:17:23.031Z,245.61
2023-03-23T15:21:23.090Z,245.14
2023-03-23T15:25:22.841Z,244.66
2023-03-23T15:29:26.660Z,243.64
2023-03-23T15:33:22.536Z,215.18
2023-03-23T15:37:23.386Z,112.58
2023-03-23T15:41:22.204Z,83.32
2023-03-23T15:45:21.931Z,32.66
2023-03-23T15:49:21.718Z,76.69
2023-03-23T15:53:21.546Z,63.29
2023-03-23T15:57:21.409Z,64.72
2023-03-23T16:01:21.387Z,55.78
2023-03-23T16:05:21.236Z,48.50
2023-03-23T16:09:21.153Z,80.16
2023-03-23T16:13:21.089Z,114.78
2023-03-23T16:17:21.014Z,145.35
2023-03-23T16:21:20.957Z,157.99
2023-03-23T16:25:20.890Z,173.01
2023-03-23T16:29:40.079Z,180.39
2023-03-23T16:33:21.678Z,184.88
2023-03-23T16:41:20.560Z,200.96
2023-03-23T16:45:20.067Z,206.77
2023-03-23T16:49:19.866Z,209.99
2023-03-23T17:01:19.714Z,220.08
2023-03-23T17:05:19.596Z,221.05
2023-03-23T17:09:19.510Z,223.18
2023-03-23T17:13:19.487Z,223.53
2023-03-23T17:17:19.369Z,225.76
2023-03-23T17:21:19.471Z,225.47
2023-03-23T17:45:18.992Z,228.18
2023-03-23T17:49:18.821Z,228.41
2023-03-23T17:53:18.757Z,228.40
2023-03-23T18:01:18.682Z,229.30
2023-03-23T18:09:18.512Z,229.86
2023-03-23T18:13:18.453Z,228.90
2023-03-23T18:17:18.409Z,228.97
2023-03-23T18:25:18.297Z,227.72
2023-03-23T18:29:18.254Z,227.13
2023-03-23T18:33:19.054Z,227.18
2023-03-23T18:41:18.104Z,225.86
2023-03-23T18:45:18.044Z,225.48
2023-03-23T18:49:17.971Z,224.74
2023-03-23T18:53:17.916Z,225.08
2023-03-23T18:57:17.850Z,224.60
2023-03-23T19:01:17.856Z,223.82
2023-03-23T19:05:17.742Z,223.55
2023-03-23T19:09:17.760Z,223.76
2023-03-23T19:17:17.566Z,223.53
2023-03-23T19:25:17.424Z,222.72
2023-03-23T19:29:25.515Z,222.42
2023-03-23T19:33:18.169Z,222.72
2023-03-23T19:45:16.625Z,221.70
2023-03-23T19:49:16.546Z,221.89
2023-03-23T19:53:18.917Z,220.48
2023-03-23T19:57:16.378Z,222.21
2023-03-23T20:01:16.469Z,220.30
2023-03-23T20:05:16.590Z,219.91
2023-03-23T20:09:15.774Z,219.81
2023-03-23T20:13:15.597Z,218.39
2023-03-23T20:17:15.406Z,218.23
2023-03-23T20:21:15.222Z,218.80
2023-03-23T20:25:15.257Z,217.73
2023-03-23T20:29:14.862Z,219.02
2023-03-23T20:33:14.678Z,216.36
2023-03-23T20:37:14.479Z,217.61
2023-03-23T20:41:14.298Z,216.81
2023-03-23T20:45:14.116Z,217.37
2023-03-23T20:49:13.953Z,216.68
2023-03-23T20:53:13.780Z,216.41
2023-03-23T20:57:13.691Z,216.52
2023-03-23T21:01:13.608Z,216.87
2023-03-23T21:05:13.540Z,215.85
2023-03-23T21:09:13.485Z,216.16
2023-03-23T21:13:13.925Z,216.72
2023-03-23T21:17:13.352Z,216.60
2023-03-23T21:21:13.287Z,215.40
2023-03-23T21:25:13.212Z,216.04
2023-03-23T21:29:13.152Z,214.67
2023-03-23T21:37:13.024Z,213.09
2023-03-23T21:41:12.982Z,212.47
2023-03-23T21:45:12.920Z,212.88
2023-03-23T21:49:12.872Z,213.85
2023-03-23T22:33:12.245Z,206.77
2023-03-23T22:49:12.044Z,202.85
2023-03-23T22:57:12.433Z,201.56
2023-03-23T23:09:11.724Z,197.16
2023-03-23T23:13:11.681Z,194.94
2023-03-23T23:17:11.642Z,196.07
2023-03-23T23:21:11.622Z,195.79
2023-03-23T23:25:11.536Z,192.91
2023-03-23T23:29:11.496Z,194.28
2023-03-23T23:33:11.438Z,192.75
